Aviation Digital Data Service (ADDS)

Output produced by METARs form (2205 UTC 16 February 2019)
found at http://www.aviationweather.gov/metar/data/
 
Forecast for: GGOV (BISSAU (CIV/MIL), GW)
Text: TAF GGOV 161700Z 1618/1718 36008KT 8000 NSC
Forecast period: 1800 UTC 16 February 2019 to 1800 UTC 17 February 2019
Forecast type: FROM: standard forecast or significant change
Winds: from the N (360 degrees) at 9 MPH (8 knots; 4.1 m/s)
Visibility: 5 miles (8 km)
Ceiling: unknown
Clouds: missing
Weather: no significant weather forecast for this period